sensor_id;sensor_type;location;lat;lon;timestamp;pressure;altitude;pressure_sealevel;temperature;humidity
30714;BME280;17465;47.934;33.430;2023-10-31T00:01:14;57348.43;;;-140.43;81.51
30714;BME280;17465;47.934;33.430;2023-10-31T00:03:45;57338.90;;;-140.43;81.87
30714;BME280;17465;47.934;33.430;2023-10-31T00:06:15;57338.90;;;-140.43;82.30
30714;BME280;17465;47.934;33.430;2023-10-31T00:08:45;57329.37;;;-140.43;82.34
30714;BME280;17465;47.934;33.430;2023-10-31T00:11:15;57331.49;;;-140.43;82.88
30714;BME280;17465;47.934;33.430;2023-10-31T00:13:46;57332.55;;;-140.43;83.08
30714;BME280;17465;47.934;33.430;2023-10-31T00:16:16;57326.20;;;-140.43;83.07
30714;BME280;17465;47.934;33.430;2023-10-31T00:18:46;57319.84;;;-140.43;83.99
30714;BME280;17465;47.934;33.430;2023-10-31T00:21:16;57313.48;;;-140.43;83.91
30714;BME280;17465;47.934;33.430;2023-10-31T00:23:49;57342.08;;;-140.43;83.93
30714;BME280;17465;47.934;33.430;2023-10-31T00:26:19;57336.79;;;-140.43;83.87
30714;BME280;17465;47.934;33.430;2023-10-31T00:28:54;57324.07;;;-140.43;84.41
30714;BME280;17465;47.934;33.430;2023-10-31T00:31:21;57337.84;;;-140.43;84.70
30714;BME280;17465;47.934;33.430;2023-10-31T00:33:51;57354.79;;;-140.43;84.32
30714;BME280;17465;47.934;33.430;2023-10-31T00:36:21;57329.37;;;-140.43;85.04
30714;BME280;17465;47.934;33.430;2023-10-31T00:38:52;57325.14;;;-140.43;85.72
30714;BME280;17465;47.934;33.430;2023-10-31T00:41:22;57342.08;;;-140.43;84.98
30714;BME280;17465;47.934;33.430;2023-10-31T00:43:52;57313.48;;;-140.43;85.41
30714;BME280;17465;47.934;33.430;2023-10-31T00:46:22;57331.49;;;-140.43;85.47
30714;BME280;17465;47.934;33.430;2023-10-31T00:48:53;57344.20;;;-140.43;85.68
30714;BME280;17465;47.934;33.430;2023-10-31T00:51:23;57344.20;;;-140.43;85.68
30714;BME280;17465;47.934;33.430;2023-10-31T00:53:53;57336.79;;;-140.43;86.42
30714;BME280;17465;47.934;33.430;2023-10-31T00:56:23;57325.14;;;-140.43;87.25
30714;BME280;17465;47.934;33.430;2023-10-31T00:58:53;57292.30;;;-140.43;89.52
30714;BME280;17465;47.934;33.430;2023-10-31T01:01:24;57292.30;;;-140.43;89.52
30714;BME280;17465;47.934;33.430;2023-10-31T01:03:54;57281.71;;;-140.43;90.02
30714;BME280;17465;47.934;33.430;2023-10-31T01:06:24;57337.84;;;-140.43;90.31
30714;BME280;17465;47.934;33.430;2023-10-31T01:08:55;57308.19;;;-140.43;90.87
30714;BME280;17465;47.934;33.430;2023-10-31T01:11:25;57296.54;;;-140.43;91.96
30714;BME280;17465;47.934;33.430;2023-10-31T01:13:55;57323.02;;;-140.43;91.88
30714;BME280;17465;47.934;33.430;2023-10-31T01:16:25;57326.20;;;-140.43;91.63
30714;BME280;17465;47.934;33.430;2023-10-31T01:18:58;57316.66;;;-140.43;92.95
30714;BME280;17465;47.934;33.430;2023-10-31T01:21:28;57277.48;;;-140.43;94.00
30714;BME280;17465;47.934;33.430;2023-10-31T01:23:59;57315.61;;;-140.43;93.80
30714;BME280;17465;47.934;33.430;2023-10-31T01:26:29;57301.84;;;-140.43;93.60
30714;BME280;17465;47.934;33.430;2023-10-31T01:28:59;57319.84;;;-140.43;93.55
30714;BME280;17465;47.934;33.430;2023-10-31T01:31:30;57294.42;;;-140.43;93.70
30714;BME280;17465;47.934;33.430;2023-10-31T01:34:02;57309.25;;;-140.43;94.33
30714;BME280;17465;47.934;33.430;2023-10-31T01:36:32;57309.25;;;-140.43;94.33
30714;BME280;17465;47.934;33.430;2023-10-31T01:39:02;57299.72;;;-140.43;95.52
30714;BME280;17465;47.934;33.430;2023-10-31T01:41:33;57299.72;;;-140.43;95.52
30714;BME280;17465;47.934;33.430;2023-10-31T01:44:03;57292.30;;;-140.43;96.50
30714;BME280;17465;47.934;33.430;2023-10-31T01:46:33;57277.48;;;-140.43;96.84
30714;BME280;17465;47.934;33.430;2023-10-31T01:49:05;57319.84;;;-140.43;97.47
30714;BME280;17465;47.934;33.430;2023-10-31T01:51:36;57309.25;;;-140.43;97.67
30714;BME280;17465;47.934;33.430;2023-10-31T01:54:08;57327.25;;;-140.43;98.11
30714;BME280;17465;47.934;33.430;2023-10-31T01:56:39;57317.72;;;-140.43;98.84
30714;BME280;17465;47.934;33.430;2023-10-31T01:59:10;57301.84;;;-140.43;99.42
30714;BME280;17465;47.934;33.430;2023-10-31T02:01:41;57301.84;;;-140.43;100.00
30714;BME280;17465;47.934;33.430;2023-10-31T02:04:11;57299.72;;;-140.43;100.00
30714;BME280;17465;47.934;33.430;2023-10-31T02:06:42;57299.72;;;-140.43;100.00
30714;BME280;17465;47.934;33.430;2023-10-31T02:09:12;57281.71;;;-140.43;100.00
30714;BME280;17465;47.934;33.430;2023-10-31T02:11:42;57293.36;;;-140.43;100.00
30714;BME280;17465;47.934;33.430;2023-10-31T02:14:12;57309.25;;;-140.43;100.00
30714;BME280;17465;47.934;33.430;2023-10-31T02:16:43;57309.25;;;-140.43;100.00
30714;BME280;17465;47.934;33.430;2023-10-31T02:19:15;57306.07;;;-140.43;100.00
30714;BME280;17465;47.934;33.430;2023-10-31T02:21:46;57306.07;;;-140.43;100.00
30714;BME280;17465;47.934;33.430;2023-10-31T02:24:16;57287.01;;;-140.43;100.00
30714;BME280;17465;47.934;33.430;2023-10-31T02:26:47;57291.25;;;-140.43;100.00
30714;BME280;17465;47.934;33.430;2023-10-31T02:29:17;57291.25;;;-140.43;100.00
30714;BME280;17465;47.934;33.430;2023-10-31T02:31:47;57291.25;;;-140.43;100.00
30714;BME280;17465;47.934;33.430;2023-10-31T02:34:17;57312.43;;;-140.43;100.00
30714;BME280;17465;47.934;33.430;2023-10-31T02:36:48;57312.43;;;-140.43;100.00
30714;BME280;17465;47.934;33.430;2023-10-31T02:39:18;57295.48;;;-140.43;100.00
30714;BME280;17465;47.934;33.430;2023-10-31T02:41:49;57303.95;;;-140.43;100.00
30714;BME280;17465;47.934;33.430;2023-10-31T02:44:19;57293.36;;;-140.43;100.00
30714;BME280;17465;47.934;33.430;2023-10-31T02:46:56;57276.42;;;-140.43;100.00
30714;BME280;17465;47.934;33.430;2023-10-31T02:49:21;57311.37;;;-140.43;100.00
30714;BME280;17465;47.934;33.430;2023-10-31T02:51:54;57293.36;;;-140.43;100.00
30714;BME280;17465;47.934;33.430;2023-10-31T02:54:25;57293.36;;;-140.43;100.00
30714;BME280;17465;47.934;33.430;2023-10-31T02:56:58;57267.95;;;-140.43;100.00
30714;BME280;17465;47.934;33.430;2023-10-31T02:59:28;57291.25;;;-140.43;100.00
30714;BME280;17465;47.934;33.430;2023-10-31T03:02:00;57310.31;;;-140.43;100.00
30714;BME280;17465;47.934;33.430;2023-10-31T03:04:32;57295.48;;;-140.43;100.00
30714;BME280;17465;47.934;33.430;2023-10-31T03:07:02;57283.83;;;-140.43;100.00
30714;BME280;17465;47.934;33.430;2023-10-31T03:09:36;57270.06;;;-140.43;100.00
30714;BME280;17465;47.934;33.430;2023-10-31T03:12:05;57283.83;;;-140.43;100.00
30714;BME280;17465;47.934;33.430;2023-10-31T03:14:35;57298.66;;;-140.43;100.00
30714;BME280;17465;47.934;33.430;2023-10-31T03:17:05;57285.95;;;-140.43;100.00
30714;BME280;17465;47.934;33.430;2023-10-31T03:19:44;57285.95;;;-140.43;100.00
30714;BME280;17465;47.934;33.430;2023-10-31T03:22:11;57270.06;;;-140.43;100.00
30714;BME280;17465;47.934;33.430;2023-10-31T03:24:41;57293.36;;;-140.43;100.00
30714;BME280;17465;47.934;33.430;2023-10-31T03:27:11;57293.36;;;-140.43;100.00
30714;BME280;17465;47.934;33.430;2023-10-31T03:29:41;57277.48;;;-140.43;100.00
30714;BME280;17465;47.934;33.430;2023-10-31T03:32:12;57273.24;;;-140.43;100.00
30714;BME280;17465;47.934;33.430;2023-10-31T03:34:42;57243.59;;;-140.43;100.00
30714;BME280;17465;47.934;33.430;2023-10-31T03:37:12;57243.59;;;-140.43;100.00
30714;BME280;17465;47.934;33.430;2023-10-31T03:39:43;57277.48;;;-140.43;100.00
30714;BME280;17465;47.934;33.430;2023-10-31T03:42:13;57303.95;;;-140.43;100.00
30714;BME280;17465;47.934;33.430;2023-10-31T03:44:43;57274.30;;;-140.43;100.00
30714;BME280;17465;47.934;33.430;2023-10-31T03:47:14;57285.95;;;-140.43;100.00
30714;BME280;17465;47.934;33.430;2023-10-31T03:49:44;57275.36;;;-140.43;100.00
30714;BME280;17465;47.934;33.430;2023-10-31T03:52:14;57289.13;;;-140.43;100.00
30714;BME280;17465;47.934;33.430;2023-10-31T03:54:44;57289.13;;;-140.43;100.00
30714;BME280;17465;47.934;33.430;2023-10-31T03:57:15;57263.71;;;-140.43;100.00
30714;BME280;17465;47.934;33.430;2023-10-31T03:59:45;57258.41;;;-140.43;100.00
30714;BME280;17465;47.934;33.430;2023-10-31T04:02:15;57277.48;;;-140.43;100.00
30714;BME280;17465;47.934;33.430;2023-10-31T04:04:46;57275.36;;;-140.43;100.00
30714;BME280;17465;47.934;33.430;2023-10-31T04:07:16;57282.77;;;-140.43;100.00
30714;BME280;17465;47.934;33.430;2023-10-31T04:09:46;57270.06;;;-140.43;100.00
30714;BME280;17465;47.934;33.430;2023-10-31T04:12:17;57271.13;;;-140.43;100.00
30714;BME280;17465;47.934;33.430;2023-10-31T04:14:47;57314.55;;;-140.43;100.00
30714;BME280;17465;47.934;33.430;2023-10-31T04:17:17;57274.30;;;-140.43;100.00
30714;BME280;17465;47.934;33.430;2023-10-31T04:19:47;57301.84;;;-140.43;100.00
30714;BME280;17465;47.934;33.430;2023-10-31T04:22:18;57277.48;;;-140.43;100.00
30714;BME280;17465;47.934;33.430;2023-10-31T04:24:48;57292.30;;;-140.43;100.00
30714;BME280;17465;47.934;33.430;2023-10-31T04:27:18;57279.59;;;-140.43;100.00
30714;BME280;17465;47.934;33.430;2023-10-31T04:29:48;57298.66;;;-140.43;100.00
30714;BME280;17465;47.934;33.430;2023-10-31T04:32:19;57294.42;;;-140.43;100.00
30714;BME280;17465;47.934;33.430;2023-10-31T04:34:49;57289.13;;;-140.43;100.00
30714;BME280;17465;47.934;33.430;2023-10-31T04:37:19;57278.54;;;-140.43;100.00
30714;BME280;17465;47.934;33.430;2023-10-31T04:39:50;57292.30;;;-140.43;100.00
30714;BME280;17465;47.934;33.430;2023-10-31T04:42:21;57297.60;;;-140.43;100.00
30714;BME280;17465;47.934;33.430;2023-10-31T04:44:52;57266.89;;;-140.43;100.00
30714;BME280;17465;47.934;33.430;2023-10-31T04:47:22;57297.60;;;-140.43;100.00
30714;BME280;17465;47.934;33.430;2023-10-31T04:49:52;57312.43;;;-140.43;100.00
30714;BME280;17465;47.934;33.430;2023-10-31T04:52:23;57312.43;;;-140.43;100.00
30714;BME280;17465;47.934;33.430;2023-10-31T04:54:53;57285.95;;;-140.43;100.00
30714;BME280;17465;47.934;33.430;2023-10-31T04:57:23;57293.36;;;-140.43;100.00
30714;BME280;17465;47.934;33.430;2023-10-31T04:59:54;57291.25;;;-140.43;100.00
30714;BME280;17465;47.934;33.430;2023-10-31T05:02:24;57279.59;;;-140.43;100.00
30714;BME280;17465;47.934;33.430;2023-10-31T05:04:55;57279.59;;;-140.43;100.00
30714;BME280;17465;47.934;33.430;2023-10-31T05:07:25;57279.59;;;-140.43;100.00
30714;BME280;17465;47.934;33.430;2023-10-31T05:09:55;57283.83;;;-140.43;100.00
30714;BME280;17465;47.934;33.430;2023-10-31T05:12:26;57303.95;;;-140.43;100.00
30714;BME280;17465;47.934;33.430;2023-10-31T05:14:56;57303.95;;;-140.43;100.00
30714;BME280;17465;47.934;33.430;2023-10-31T05:17:26;57303.95;;;-140.43;100.00
30714;BME280;17465;47.934;33.430;2023-10-31T05:19:56;57289.13;;;-140.43;100.00
30714;BME280;17465;47.934;33.430;2023-10-31T05:22:26;57294.42;;;-140.43;100.00
30714;BME280;17465;47.934;33.430;2023-10-31T05:24:57;57317.72;;;-140.43;100.00
30714;BME280;17465;47.934;33.430;2023-10-31T05:27:27;57317.72;;;-140.43;100.00
30714;BME280;17465;47.934;33.430;2023-10-31T05:29:59;57274.30;;;-140.43;100.00
30714;BME280;17465;47.934;33.430;2023-10-31T05:32:34;57303.95;;;-140.43;100.00
30714;BME280;17465;47.934;33.430;2023-10-31T05:35:05;57303.95;;;-140.43;100.00
30714;BME280;17465;47.934;33.430;2023-10-31T05:37:35;57296.54;;;-140.43;100.00
30714;BME280;17465;47.934;33.430;2023-10-31T05:40:06;57293.36;;;-140.43;100.00
30714;BME280;17465;47.934;33.430;2023-10-31T05:42:36;57293.36;;;-140.43;100.00
30714;BME280;17465;47.934;33.430;2023-10-31T05:45:07;57321.96;;;-140.43;100.00
30714;BME280;17465;47.934;33.430;2023-10-31T05:47:37;57312.43;;;-140.43;100.00
30714;BME280;17465;47.934;33.430;2023-10-31T05:50:09;57313.48;;;-140.43;100.00
30714;BME280;17465;47.934;33.430;2023-10-31T05:52:39;57313.48;;;-140.43;100.00
30714;BME280;17465;47.934;33.430;2023-10-31T05:55:09;57302.89;;;-140.43;100.00
30714;BME280;17465;47.934;33.430;2023-10-31T05:57:40;57294.42;;;-140.43;100.00
30714;BME280;17465;47.934;33.430;2023-10-31T06:00:10;57283.83;;;-140.43;100.00
30714;BME280;17465;47.934;33.430;2023-10-31T06:02:41;57283.83;;;-140.43;100.00
30714;BME280;17465;47.934;33.430;2023-10-31T06:05:13;57283.83;;;-140.43;100.00
30714;BME280;17465;47.934;33.430;2023-10-31T06:07:47;57302.89;;;-140.43;100.00
30714;BME280;17465;47.934;33.430;2023-10-31T06:10:17;57297.60;;;-140.43;100.00
30714;BME280;17465;47.934;33.430;2023-10-31T06:12:47;57297.60;;;-140.43;100.00
30714;BME280;17465;47.934;33.430;2023-10-31T06:15:18;57318.78;;;-140.43;100.00
30714;BME280;17465;47.934;33.430;2023-10-31T06:17:48;57316.66;;;-140.43;100.00
30714;BME280;17465;47.934;33.430;2023-10-31T06:20:18;57301.84;;;-140.43;100.00
30714;BME280;17465;47.934;33.430;2023-10-31T06:22:49;57300.78;;;-140.43;100.00
30714;BME280;17465;47.934;33.430;2023-10-31T06:25:19;57299.72;;;-140.43;100.00
30714;BME280;17465;47.934;33.430;2023-10-31T06:27:53;57290.18;;;-140.43;100.00
30714;BME280;17465;47.934;33.430;2023-10-31T06:30:26;57290.18;;;-140.43;100.00
30714;BME280;17465;47.934;33.430;2023-10-31T06:33:09;57299.72;;;-140.43;100.00
30714;BME280;17465;47.934;33.430;2023-10-31T06:35:41;57299.72;;;-140.43;100.00
30714;BME280;17465;47.934;33.430;2023-10-31T06:38:11;57294.42;;;-140.43;100.00
30714;BME280;17465;47.934;33.430;2023-10-31T06:40:43;57303.95;;;-140.43;100.00
30714;BME280;17465;47.934;33.430;2023-10-31T06:43:16;57302.89;;;-140.43;100.00
30714;BME280;17465;47.934;33.430;2023-10-31T06:45:47;57318.78;;;-140.43;100.00
30714;BME280;17465;47.934;33.430;2023-10-31T06:48:20;57300.78;;;-140.43;100.00
30714;BME280;17465;47.934;33.430;2023-10-31T06:50:52;57284.89;;;-140.43;100.00
30714;BME280;17465;47.934;33.430;2023-10-31T06:53:23;57295.48;;;-140.43;100.00
30714;BME280;17465;47.934;33.430;2023-10-31T06:56:00;57331.49;;;-140.43;100.00
30714;BME280;17465;47.934;33.430;2023-10-31T06:58:32;57331.49;;;-140.43;100.00
30714;BME280;17465;47.934;33.430;2023-10-31T07:01:04;57300.78;;;-140.43;100.00
30714;BME280;17465;47.934;33.430;2023-10-31T07:03:40;57296.54;;;-140.43;100.00
30714;BME280;17465;47.934;33.430;2023-10-31T07:06:20;57330.43;;;-140.43;100.00
30714;BME280;17465;47.934;33.430;2023-10-31T07:09:02;57329.37;;;-140.43;98.72
30714;BME280;17465;47.934;33.430;2023-10-31T07:11:39;57325.14;;;-140.43;98.82
30714;BME280;17465;47.934;33.430;2023-10-31T07:14:17;57336.79;;;-140.43;97.54
30714;BME280;17465;47.934;33.430;2023-10-31T07:17:00;57336.79;;;-140.43;97.54
30714;BME280;17465;47.934;33.430;2023-10-31T07:19:32;57341.02;;;-140.43;97.22
30714;BME280;17465;47.934;33.430;2023-10-31T07:22:04;57341.02;;;-140.43;97.22
30714;BME280;17465;47.934;33.430;2023-10-31T07:24:35;57321.96;;;-140.43;97.02
30714;BME280;17465;47.934;33.430;2023-10-31T07:27:07;57299.72;;;-140.43;97.12
30714;BME280;17465;47.934;33.430;2023-10-31T07:29:40;57299.72;;;-140.43;97.12
30714;BME280;17465;47.934;33.430;2023-10-31T07:32:11;57320.90;;;-140.43;97.17
30714;BME280;17465;47.934;33.430;2023-10-31T07:34:42;57321.96;;;-140.43;95.42
30714;BME280;17465;47.934;33.430;2023-10-31T07:37:15;57329.37;;;-140.43;94.60
30714;BME280;17465;47.934;33.430;2023-10-31T07:39:45;57329.37;;;-140.43;94.60
30714;BME280;17465;47.934;33.430;2023-10-31T07:42:15;57327.25;;;-140.43;93.00
30714;BME280;17465;47.934;33.430;2023-10-31T07:44:51;57336.79;;;-140.43;91.86
30714;BME280;17465;47.934;33.430;2023-10-31T07:47:22;57400.33;;;-140.43;88.11
30714;BME280;17465;47.934;33.430;2023-10-31T07:49:55;57403.51;;;-140.43;85.62
30714;BME280;17465;47.934;33.430;2023-10-31T07:52:31;57397.15;;;-140.43;82.43
30714;BME280;17465;47.934;33.430;2023-10-31T07:55:05;57397.15;;;-140.43;82.43
30714;BME280;17465;47.934;33.430;2023-10-31T07:57:37;57424.69;;;-140.43;79.16
30714;BME280;17465;47.934;33.430;2023-10-31T08:00:12;57460.70;;;-140.43;78.34
30714;BME280;17465;47.934;33.430;2023-10-31T08:02:43;57445.87;;;-140.43;77.91
30714;BME280;17465;47.934;33.430;2023-10-31T08:05:16;57482.94;;;-140.43;73.86
30714;BME280;17465;47.934;33.430;2023-10-31T08:07:46;57482.94;;;-140.43;73.86
30714;BME280;17465;47.934;33.430;2023-10-31T08:10:17;57469.17;;;-140.43;73.97
30714;BME280;17465;47.934;33.430;2023-10-31T08:12:50;57463.87;;;-140.43;73.33
30714;BME280;17465;47.934;33.430;2023-10-31T08:15:24;57446.93;;;-140.43;73.74
30714;BME280;17465;47.934;33.430;2023-10-31T08:17:54;57475.52;;;-140.43;75.75
30714;BME280;17465;47.934;33.430;2023-10-31T08:20:25;57422.57;;;-140.43;77.12
30714;BME280;17465;47.934;33.430;2023-10-31T08:22:55;57450.11;;;-140.43;77.79
30714;BME280;17465;47.934;33.430;2023-10-31T08:25:25;57468.11;;;-140.43;77.01
30714;BME280;17465;47.934;33.430;2023-10-31T08:27:56;57458.58;;;-140.43;79.28
30714;BME280;17465;47.934;33.430;2023-10-31T08:30:26;57395.03;;;-140.43;82.33
30714;BME280;17465;47.934;33.430;2023-10-31T08:32:58;57441.63;;;-140.43;83.88
30714;BME280;17465;47.934;33.430;2023-10-31T08:35:32;57417.27;;;-140.43;84.45
30714;BME280;17465;47.934;33.430;2023-10-31T08:38:02;57404.57;;;-140.43;84.31
30714;BME280;17465;47.934;33.430;2023-10-31T08:40:33;57402.45;;;-140.43;85.62
30714;BME280;17465;47.934;33.430;2023-10-31T08:43:03;57405.62;;;-140.43;86.31
30714;BME280;17465;47.934;33.430;2023-10-31T08:45:36;57434.22;;;-140.43;85.90
30714;BME280;17465;47.934;33.430;2023-10-31T08:48:19;57436.34;;;-140.43;84.73
30714;BME280;17465;47.934;33.430;2023-10-31T08:51:10;57425.75;;;-140.43;84.90
30714;BME280;17465;47.934;33.430;2023-10-31T08:53:43;57438.46;;;-140.43;84.56
30714;BME280;17465;47.934;33.430;2023-10-31T08:59:22;57440.57;;;-140.43;84.79
30714;BME280;17465;47.934;33.430;2023-10-31T09:01:53;57427.87;;;-140.43;85.31
30714;BME280;17465;47.934;33.430;2023-10-31T09:04:29;57429.98;;;-140.43;85.74
30714;BME280;17465;47.934;33.430;2023-10-31T09:07:02;57429.98;;;-140.43;85.74
30714;BME280;17465;47.934;33.430;2023-10-31T09:09:32;57432.10;;;-140.43;84.63
30714;BME280;17465;47.934;33.430;2023-10-31T09:12:03;57421.51;;;-140.43;84.68
30714;BME280;17465;47.934;33.430;2023-10-31T09:14:34;57421.51;;;-140.43;84.68
30714;BME280;17465;47.934;33.430;2023-10-31T09:17:09;57428.92;;;-140.43;84.89
30714;BME280;17465;47.934;33.430;2023-10-31T09:19:36;57446.93;;;-140.43;84.16
30714;BME280;17465;47.934;33.430;2023-10-31T09:22:07;57446.93;;;-140.43;84.16
30714;BME280;17465;47.934;33.430;2023-10-31T09:24:37;57472.35;;;-140.43;82.08
30714;BME280;17465;47.934;33.430;2023-10-31T09:27:12;57473.41;;;-140.43;81.05
30714;BME280;17465;47.934;33.430;2023-10-31T09:29:54;57473.41;;;-140.43;81.05
30714;BME280;17465;47.934;33.430;2023-10-31T09:32:26;57471.29;;;-140.43;79.81
30714;BME280;17465;47.934;33.430;2023-10-31T09:34:57;57463.87;;;-140.43;79.12
30714;BME280;17465;47.934;33.430;2023-10-31T09:37:29;57514.71;;;-140.43;78.72
30714;BME280;17465;47.934;33.430;2023-10-31T09:40:13;57514.71;;;-140.43;78.72
30714;BME280;17465;47.934;33.430;2023-10-31T09:42:45;57496.71;;;-140.43;76.95
30714;BME280;17465;47.934;33.430;2023-10-31T09:45:16;57488.23;;;-140.43;77.48
30714;BME280;17465;47.934;33.430;2023-10-31T09:47:47;57488.23;;;-140.43;77.48
30714;BME280;17465;47.934;33.430;2023-10-31T09:50:17;57522.12;;;-140.43;77.01
30714;BME280;17465;47.934;33.430;2023-10-31T09:52:49;57496.71;;;-140.43;76.04
30714;BME280;17465;47.934;33.430;2023-10-31T09:55:30;57496.71;;;-140.43;76.04
30714;BME280;17465;47.934;33.430;2023-10-31T09:57:56;57505.18;;;-140.43;76.06
30714;BME280;17465;47.934;33.430;2023-10-31T10:00:27;57503.06;;;-140.43;75.79
30714;BME280;17465;47.934;33.430;2023-10-31T10:02:57;57503.06;;;-140.43;75.79
30714;BME280;17465;47.934;33.430;2023-10-31T10:05:31;57525.30;;;-140.43;75.40
30714;BME280;17465;47.934;33.430;2023-10-31T10:08:07;57525.30;;;-140.43;75.38
30714;BME280;17465;47.934;33.430;2023-10-31T10:10:34;57480.82;;;-140.43;75.52
30714;BME280;17465;47.934;33.430;2023-10-31T10:13:05;57506.24;;;-140.43;75.26
30714;BME280;17465;47.934;33.430;2023-10-31T10:15:51;57530.60;;;-140.43;73.86
30714;BME280;17465;47.934;33.430;2023-10-31T10:18:35;57525.30;;;-140.43;73.81
30714;BME280;17465;47.934;33.430;2023-10-31T10:21:07;57530.60;;;-140.43;74.90
30714;BME280;17465;47.934;33.430;2023-10-31T10:23:39;57530.60;;;-140.43;74.90
30714;BME280;17465;47.934;33.430;2023-10-31T10:26:10;57532.72;;;-140.43;73.10
30714;BME280;17465;47.934;33.430;2023-10-31T10:28:40;57553.90;;;-140.43;71.03
30714;BME280;17465;47.934;33.430;2023-10-31T10:31:13;57520.01;;;-140.43;70.82
30714;BME280;17465;47.934;33.430;2023-10-31T10:33:46;57527.42;;;-140.43;70.95
30714;BME280;17465;47.934;33.430;2023-10-31T10:36:18;57548.61;;;-140.43;71.22
30714;BME280;17465;47.934;33.430;2023-10-31T10:38:55;57545.43;;;-140.43;68.88
30714;BME280;17465;47.934;33.430;2023-10-31T10:41:21;57543.31;;;-140.43;67.75
30714;BME280;17465;47.934;33.430;2023-10-31T10:43:55;57579.32;;;-140.43;67.17
30714;BME280;17465;47.934;33.430;2023-10-31T10:46:26;57568.73;;;-140.43;66.96
30714;BME280;17465;47.934;33.430;2023-10-31T10:48:59;57576.14;;;-140.43;64.85
30714;BME280;17465;47.934;33.430;2023-10-31T10:54:25;57584.61;;;-140.43;64.93
30714;BME280;17465;47.934;33.430;2023-10-31T10:57:42;57584.61;;;-140.43;64.93
30714;BME280;17465;47.934;33.430;2023-10-31T10:59:42;57587.79;;;-140.43;63.65
30714;BME280;17465;47.934;33.430;2023-10-31T11:02:13;57561.31;;;-140.43;62.11
30714;BME280;17465;47.934;33.430;2023-10-31T11:04:44;57561.31;;;-140.43;62.11
30714;BME280;17465;47.934;33.430;2023-10-31T11:07:16;57592.03;;;-140.43;62.28
30714;BME280;17465;47.934;33.430;2023-10-31T11:09:47;57596.27;;;-140.43;62.93
30714;BME280;17465;47.934;33.430;2023-10-31T11:12:19;57566.61;;;-140.43;60.83
30714;BME280;17465;47.934;33.430;2023-10-31T11:14:51;57580.37;;;-140.43;61.34
30714;BME280;17465;47.934;33.430;2023-10-31T11:17:33;57580.37;;;-140.43;61.34
30714;BME280;17465;47.934;33.430;2023-10-31T11:20:04;57603.68;;;-140.43;59.72
30714;BME280;17465;47.934;33.430;2023-10-31T11:22:45;57603.68;;;-140.43;59.72
30714;BME280;17465;47.934;33.430;2023-10-31T11:25:21;57585.67;;;-140.43;58.15
30714;BME280;17465;47.934;33.430;2023-10-31T11:28:11;57581.44;;;-140.43;57.84
30714;BME280;17465;47.934;33.430;2023-10-31T11:30:42;57594.14;;;-140.43;58.25
30714;BME280;17465;47.934;33.430;2023-10-31T11:33:18;57594.14;;;-140.43;58.25
30714;BME280;17465;47.934;33.430;2023-10-31T11:35:59;57577.20;;;-140.43;57.07
30714;BME280;17465;47.934;33.430;2023-10-31T11:38:35;57577.20;;;-140.43;57.07
30714;BME280;17465;47.934;33.430;2023-10-31T11:41:06;57604.74;;;-140.43;55.96
30714;BME280;17465;47.934;33.430;2023-10-31T11:46:23;57646.04;;;-140.43;53.25
30714;BME280;17465;47.934;33.430;2023-10-31T11:48:55;57598.38;;;-140.43;53.97
30714;BME280;17465;47.934;33.430;2023-10-31T11:51:26;57613.21;;;-140.43;53.18
30714;BME280;17465;47.934;33.430;2023-10-31T11:53:57;57613.21;;;-140.43;53.18
30714;BME280;17465;47.934;33.430;2023-10-31T11:56:29;57633.34;;;-140.43;53.31
30714;BME280;17465;47.934;33.430;2023-10-31T11:59:02;57633.34;;;-140.43;53.31
30714;BME280;17465;47.934;33.430;2023-10-31T12:01:33;57628.04;;;-140.43;52.74
30714;BME280;17465;47.934;33.430;2023-10-31T12:04:03;57607.91;;;-140.43;52.65
30714;BME280;17465;47.934;33.430;2023-10-31T12:06:35;57607.91;;;-140.43;52.65
30714;BME280;17465;47.934;33.430;2023-10-31T12:09:06;57601.56;;;-140.43;52.16
30714;BME280;17465;47.934;33.430;2023-10-31T12:11:44;57629.10;;;-140.43;52.28
30714;BME280;17465;47.934;33.430;2023-10-31T12:14:09;57597.32;;;-140.43;52.37
30714;BME280;17465;47.934;33.430;2023-10-31T12:16:40;57630.16;;;-140.43;52.73
30714;BME280;17465;47.934;33.430;2023-10-31T12:19:10;57626.98;;;-140.43;51.98
30714;BME280;17465;47.934;33.430;2023-10-31T12:21:43;57617.45;;;-140.43;51.18
30714;BME280;17465;47.934;33.430;2023-10-31T12:24:18;57551.78;;;-140.43;51.22
30714;BME280;17465;47.934;33.430;2023-10-31T12:26:49;57551.78;;;-140.43;51.22
30714;BME280;17465;47.934;33.430;2023-10-31T12:29:20;57575.08;;;-140.43;50.86
30714;BME280;17465;47.934;33.430;2023-10-31T12:31:56;57582.50;;;-140.43;51.15
30714;BME280;17465;47.934;33.430;2023-10-31T12:34:25;57556.02;;;-140.43;50.90
30714;BME280;17465;47.934;33.430;2023-10-31T12:36:56;57549.66;;;-140.43;50.10
30714;BME280;17465;47.934;33.430;2023-10-31T12:39:27;57549.66;;;-140.43;50.10
30714;BME280;17465;47.934;33.430;2023-10-31T12:42:02;57581.44;;;-140.43;49.70
30714;BME280;17465;47.934;33.430;2023-10-31T12:44:33;57593.09;;;-140.43;49.56
30714;BME280;17465;47.934;33.430;2023-10-31T12:47:07;57550.72;;;-140.43;49.87
30714;BME280;17465;47.934;33.430;2023-10-31T12:49:39;57550.72;;;-140.43;49.87
30714;BME280;17465;47.934;33.430;2023-10-31T12:52:11;57603.68;;;-140.43;47.92
30714;BME280;17465;47.934;33.430;2023-10-31T12:54:45;57592.03;;;-140.43;48.27
30714;BME280;17465;47.934;33.430;2023-10-31T12:57:15;57570.85;;;-140.43;48.73